Tiempo atmosférico en la estación meteorológica de Marbella, Puerto, Málaga (6 m.)



Fecha
DESCASC
Temp. máxima en grados centígrados (hora)
DESCASC
Temp. mínima en grados centígrados (hora)
DESCASC
Temp. media en grados centígrados
DESCASC
Racha de viento máxima en m/sg (hora)
DESCASC
Velocidad máxima media en intervalos de 10 minutos(hora)
DESCASC
Precipitaciones diarias en mm
DESCASC
Precipitaciones de 00:00 a 06:00 en mm
DESCASC
Precipitaciones de 06:00 a 12:00 en mm
DESCASC
Precipitaciones de 12:00 a 18:00 en mm
DESCASC
Precipitaciones de 18:00 a 24:00 en mm
DESCASC
10-10-2020 23.2 (14:40) 16.9 (00:00) 20.1 4.17 (07:00) 2.5 (01:10) 0 0 0 0 0
28-10-2020 21.3 (16:30) 13.4 (00:00) 17.3 4.72 (05:20) 3.06 (05:30) 0 0 0 0 0
07-10-2020 23.4 (16:40) 15.9 (00:00) 19.6 4.72 (05:10) 3.06 (05:10) 0 0 0 0 0
17-10-2020 19.6 (10:30) 13.4 (00:00) 16.5 4.17 (00:20) 3.33 (07:00) 0 0 0 0 0
16-10-2020 20.7 (13:10) 13.1 (00:00) 16.9 4.44 (02:50) 3.33 (02:50) 0 0 0 0 0
30-09-2020 24.1 (11:20) 17.9 (00:00) 21 4.72 (03:40) 3.33 (03:50) 0 0 0 0 0
05-10-2020 21.7 (13:40) 16.2 (00:00) 19 4.17 (18:30) 3.33 (18:30) 0 0 0 0 0
27-10-2020 19.9 (17:20) 13.3 (00:00) 16.6 4.72 (06:00) 3.33 (06:00) 0 0 0 0 0
13-10-2020 20.8 (17:40) 14.9 (00:00) 17.8 5.56 (03:50) 3.33 (19:40) 0 0 0 0 0
09-10-2020 24 (16:10) 17.2 (00:00) 20.6 4.72 (08:50) 3.33 (08:50) 0 0 0 0 0
11-10-2020 22.1 (18:20) 16.7 (00:00) 19.4 4.17 (07:40) 3.33 (07:50) 0 0 0 0 0
24-10-2020 21.9 (15:50) 14.7 (00:00) 18.3 5 (04:00) 3.61 (19:10) 0 0 0 0 0
04-10-2020 23.8 (19:30) 14.5 (00:00) 19.1 9.17 (19:50) 4.72 (19:30) 0 0 0 0 0
06-10-2020 22.6 (15:30) 15.4 (00:00) 19 6.67 (12:20) 5 (13:30) 0 0 0 0 0
12-10-2020 21.9 (10:50) 15.6 (00:00) 18.8 7.5 (12:50) 5.56 (12:30) 0 0 0 0 0
03-10-2020 20.2 (16:20) 14.6 (00:00) 17.4 9.17 (06:00) 5.56 (17:00) 0 0 0 0 0
23-10-2020 21.6 (14:00) 14 (00:00) 17.8 8.06 (16:10) 6.11 (16:20) 0.8 0.8 0 0 0
29-10-2020 20.7 (10:40) 13.3 (00:00) 17 8.06 (14:40) 6.39 (14:30) 0 0 0 0 0
21-10-2020 21.3 (14:20) 16.8 (00:00) 19 9.72 (08:40) 6.39 (08:40) 4.2 1.8 2.4 0 0
20-10-2020 20.2 (12:20) 16.8 (00:00) 18.5 11.94 (23:50) 6.67 (23:50) 15.8 0 0 0 15.8
22-10-2020 18.9 (00:30) 16.4 (00:00) 17.6 8.61 (10:10) 6.67 (10:10) 35.6 2.4 6.2 27 0
19-10-2020 20.3 (17:40) 15.5 (00:00) 17.9 9.17 (13:00) 6.94 (15:40) 0 0 0 0 0
18-10-2020 21 (10:30) 13.9 (00:00) 17.4 9.72 (13:20) 7.78 (13:20) 0 0 0 0 0
08-10-2020 23.8 (10:00) 16.6 (00:00) 20.2 10.28 (14:30) 8.33 (14:30) 0 0 0 0 0
26-10-2020 21.3 (13:30) 14.1 (00:00) 17.7 11.11 (01:40) 8.61 (01:50) 0 0 0 0 0
15-10-2020 19.9 (20:10) 13.4 (00:00) 16.6 11.11 (19:20) 8.89 (19:10) 0 0 0 0 0
25-10-2020 22.8 (13:40) 13 (00:00) 17.9 15 (15:10) 9.72 (15:00) 0 0 0 0 0
01-10-2020 24.3 (21:00) 17.5 (00:00) 20.9 17.22 (17:10) 14.17 (16:00) 0 0 0 0 0
14-10-2020 24.5 (18:10) 15.2 (00:00) 19.8 19.72 (14:40) 15 (14:20) 0 0 0 0 0
02-10-2020 22.7 (05:50) 18.8 (00:00) 20.8 22.5 (16:20) 15 (16:20) 0.2 0 0 0.2 0

Gráficas

Temp. máximas Temp. mínimas Temp. medias Precipitaciones Rachas de viento máximas Velocidades máximas media en intervalos de 10 minutos

Datos horarios

Fecha y hora oficial Temperatura (ºC) Velocidad del viento (km/h) Dirección del viento Racha (km/h) Dirección de racha Precipitación (mm) Presión (hPa) Tendencia (hPa) Humedad (%)
2020-10-29 23:00:00 17.4 3 Nordeste 11 Este 0 -- -- 64
2020-10-29 22:00:00 18.8 7 Norte 13 Norte 0 -- -- 57
2020-10-29 21:00:00 18 3 Norte 8 Nordeste 0 -- -- 58
2020-10-29 20:00:00 18.2 6 Nordeste 19 Este 0 -- -- 59
2020-10-29 19:00:00 18.7 18 Este 26 Este 0 -- -- 67
2020-10-29 18:00:00 18.8 20 Sudeste 26 Sudeste 0 -- -- 68
2020-10-29 17:00:00 18.7 21 Este 27 Este 0 -- -- 71
2020-10-29 16:00:00 18.7 21 Este 28 Sudeste 0 -- -- 70
2020-10-29 15:00:00 18.5 22 Sudeste 29 Sudeste 0 -- -- 71
2020-10-29 14:00:00 18.5 21 Este 27 Este 0 -- -- 72
2020-10-29 13:00:00 18.6 21 Este 26 Este 0 -- -- 70
2020-10-29 12:00:00 19.8 9 Este 15 Este 0 -- -- 61
2020-10-29 11:00:00 20.5 3 Nordeste 6 Este 0 -- -- 55
2020-10-29 10:00:00 20.6 4 Nordeste 11 Norte 0 -- -- 50
2020-10-29 09:00:00 17.4 8 Noroeste 16 Norte 0 -- -- 62
2020-10-29 08:00:00 14 11 Noroeste 15 Noroeste 0 -- -- 74
2020-10-29 07:00:00 13.4 9 Noroeste 15 Norte 0 -- -- 74
2020-10-29 06:00:00 13.5 10 Noroeste 13 Noroeste 0 -- -- 70
2020-10-29 05:00:00 13.6 9 Noroeste 14 Norte 0 -- -- 73
2020-10-29 04:00:00 13.9 10 Norte 15 Norte 0 -- -- 73
2020-10-29 03:00:00 14 8 Noroeste 12 Norte 0 -- -- 70
2020-10-29 02:00:00 14.1 8 Norte 12 Norte 0 -- -- 69
2020-10-29 01:00:00 14.5 9 Norte 12 Norte 0 -- -- 70
2020-10-29 00:00:00 14.8 9 Norte 15 Norte 0 -- -- 68
2020-10-28 23:00:00 15 8 Norte 12 Noroeste 0 -- -- 67
2020-10-28 22:00:00 15.4 8 Norte 11 Noroeste 0 -- -- 65
2020-10-28 21:00:00 16.1 7 Noroeste 9 Noroeste 0 -- -- 63
2020-10-28 20:00:00 16.5 0 Calma 4 Oeste 0 -- -- 69
2020-10-28 19:00:00 17.5 0 Calma 5 Este 0 -- -- 74
2020-10-28 18:00:00 18.6 0 Calma 5 Sur 0 -- -- 63
2020-10-28 17:00:00 19.1 3 Sur 4 Sudeste 0 -- -- 63
2020-10-28 16:00:00 20.4 0 Calma 5 Sur 0 -- -- 58
2020-10-28 15:00:00 19.1 4 Sur 6 Sur 0 -- -- 66
2020-10-28 14:00:00 19 3 Sur 8 Sur 0 -- -- 61
2020-10-28 13:00:00 18 6 Sur 8 Sur 0 -- -- 68
2020-10-28 12:00:00 18.6 4 Sudoeste 6 Sur 0 -- -- 58
2020-10-28 11:00:00 18.5 4 Sur 6 Sudoeste 0 -- -- 60
2020-10-28 10:00:00 18.3 4 Sudoeste 6 Sudoeste 0 -- -- 59
2020-10-28 09:00:00 18 4 Noroeste 10 Noroeste 0 -- -- 50
2020-10-28 08:00:00 14.7 3 Noroeste 10 Noroeste 0 -- -- 58
2020-10-28 07:00:00 14 7 Oeste 12 Oeste 0 -- -- 63
2020-10-28 06:00:00 13.8 0 Calma 17 Norte 0 -- -- 59
2020-10-28 05:00:00 14.5 9 Norte 15 Norte 0 -- -- 57
2020-10-28 04:00:00 14.2 5 Noroeste 10 Noroeste 0 -- -- 60
2020-10-28 03:00:00 14.9 4 Noroeste 14 Noroeste 0 -- -- 59
2020-10-28 02:00:00 14.5 3 Noroeste 9 Sudoeste 0 -- -- 57
2020-10-28 01:00:00 14.8 2 Oeste 10 Noroeste 0 -- -- 66
2020-10-28 00:00:00 15.6 2 Oeste 12 Noroeste 0 -- -- 61
2020-10-27 23:00:00 15.9 4 Nordeste 9 Noroeste 0 -- -- 53
2020-10-27 22:00:00 16.3 7 Noroeste 14 Norte 0 -- -- 52
2020-10-27 21:00:00 15.9 8 Noroeste 16 Norte 0 -- -- 56
2020-10-27 20:00:00 15.8 11 Noroeste 15 Noroeste 0 -- -- 55
2020-10-27 19:00:00 16.9 5 Norte 7 Nordeste 0 -- -- 58
2020-10-27 18:00:00 18.6 5 Este 9 Este 0 -- -- 67
2020-10-27 17:00:00 18.8 0 Calma 7 Sudoeste 0 -- -- 56
2020-10-27 16:00:00 19.1 4 Sudoeste 9 Sudoeste 0 -- -- 60
2020-10-27 15:00:00 18.4 5 Sudoeste 12 Sudoeste 0 -- -- 62
2020-10-27 14:00:00 17.9 10 Sudoeste 14 Sudoeste 0 -- -- 61
2020-10-27 13:00:00 17.5 8 Sudoeste 9 Sudoeste 0 -- -- 58
2020-10-27 12:00:00 17.5 5 Sudoeste 8 Sudoeste 0 -- -- 51
2020-10-27 11:00:00 18.1 3 Sudeste 5 Nordeste 0 -- -- 53
2020-10-27 10:00:00 18.6 4 Nordeste 9 Noroeste 0 -- -- 44
2020-10-27 09:00:00 17.3 4 Noroeste 14 Norte 0 -- -- 46
2020-10-27 08:00:00 13.8 10 Norte 14 Norte 0 -- -- 55
2020-10-27 07:00:00 13.7 10 Norte 15 Noroeste 0 -- -- 54
2020-10-27 06:00:00 13.8 12 Noroeste 17 Norte 0 -- -- 54
2020-10-27 05:00:00 14.3 7 Norte 17 Noroeste 0 -- -- 53
2020-10-27 04:00:00 14.1 3 Noroeste 12 Norte 0 -- -- 54
2020-10-27 03:00:00 14.7 6 Norte 15 Norte 0 -- -- 51
2020-10-27 02:00:00 14.6 2 Este 9 Norte 0 -- -- 57
2020-10-27 01:00:00 13.9 9 Nordeste 15 Nordeste 0 -- -- 57
2020-10-27 00:00:00 14.3 9 Norte 17 Noroeste 0 -- -- 55
2020-10-26 23:00:00 14.2 10 Norte 17 Noroeste 0 -- -- 56
2020-10-26 22:00:00 15.3 4 Noroeste 15 Noroeste 0 -- -- 52
2020-10-26 21:00:00 15.5 6 Norte 13 Noroeste 0 -- -- 52
2020-10-26 20:00:00 16.4 5 Noroeste 17 Noroeste 0 -- -- 48
2020-10-26 19:00:00 17.2 8 Noroeste 22 Noroeste 0 -- -- 45
2020-10-26 18:00:00 18.8 13 Noroeste 28 Noroeste 0 -- -- 39
2020-10-26 17:00:00 20 12 Noroeste 29 Noroeste 0 -- -- 36
2020-10-26 16:00:00 20.4 11 Noroeste 31 Noroeste 0 -- -- 35
2020-10-26 15:00:00 19.9 18 Noroeste 36 Noroeste 0 -- -- 36
2020-10-26 14:00:00 20.5 14 Noroeste 31 Noroeste 0 -- -- 35
2020-10-26 13:00:00 20.9 13 Noroeste 34 Noroeste 0 -- -- 37
2020-10-26 12:00:00 20 13 Noroeste 32 Oeste 0 -- -- 39
2020-10-26 11:00:00 19.3 13 Noroeste 35 Oeste 0 -- -- 39
2020-10-26 10:00:00 19 21 Oeste 30 Oeste 0 -- -- 47
2020-10-26 09:00:00 19 7 Oeste 22 Noroeste 0 -- -- 43
2020-10-26 08:00:00 17.5 6 Noroeste 27 Norte 0 -- -- 45
2020-10-26 07:00:00 17.5 8 Nordeste 16 Noroeste 0 -- -- 70
2020-10-26 06:00:00 17.4 5 Nordeste 14 Noroeste 0 -- -- 72
2020-10-26 05:00:00 18.2 5 Nordeste 21 Sudoeste 0 -- -- 58
2020-10-26 04:00:00 18 11 Este 22 Nordeste 0 -- -- 66
2020-10-26 03:00:00 16.5 5 Sudoeste 37 Sudoeste 0 -- -- 92
2020-10-26 02:00:00 17.2 30 Sudoeste 40 Sudoeste 0 -- -- 93
2020-10-26 01:00:00 17.8 24 Sudoeste 35 Sudoeste 0 -- -- 89
2020-10-26 00:00:00 18.1 16 Oeste 35 Sudoeste 0 -- -- 85
2020-10-25 23:00:00 18.2 22 Oeste 38 Sudoeste 0 -- -- 82
2020-10-25 22:00:00 18.4 31 Oeste 44 Oeste 0 -- -- 81
2020-10-25 21:00:00 18.5 21 Oeste 36 Oeste 0 -- -- 77
2020-10-25 20:00:00 18.6 24 Sudoeste 37 Sudoeste 0 -- -- 76
2020-10-25 19:00:00 19.1 25 Sudoeste 37 Sudoeste 0 -- -- 73
2020-10-25 18:00:00 19.6 28 Sudoeste 40 Sudoeste 0 -- -- 71
2020-10-25 17:00:00 22.2 20 Oeste 33 Oeste 0 -- -- 52
2020-10-25 16:00:00 22 25 Oeste 54 Oeste 0 -- -- 51
2020-10-25 15:00:00 22.4 35 Oeste 48 Oeste 0 -- -- 48
2020-10-25 14:00:00 22.4 31 Oeste 44 Oeste 0 -- -- 52
2020-10-25 13:00:00 20.3 10 Nordeste 14 Nordeste 0 -- -- 59
2020-10-25 12:00:00 18.6 6 Este 9 Sudeste 0 -- -- 66
2020-10-25 11:00:00 18.7 6 Este 9 Nordeste 0 -- -- 65
2020-10-25 10:00:00 19 4 Nordeste 8 Norte 0 -- -- 64
2020-10-25 09:00:00 16.3 7 Norte 14 Noroeste 0 -- -- 66
2020-10-25 08:00:00 13.6 2 Norte 11 Noroeste 0 -- -- 80
2020-10-25 07:00:00 13 8 Noroeste 12 Noroeste 0 -- -- 81
2020-10-25 06:00:00 13.8 5 Noroeste 10 Norte 0 -- -- 78
2020-10-25 05:00:00 14.4 8 Noroeste 13 Norte 0 -- -- 76
2020-10-25 04:00:00 14.5 6 Noroeste 19 Norte 0 -- -- 78
2020-10-25 03:00:00 14.5 5 Noroeste 13 Noroeste 0 -- -- 81
2020-10-25 02:00:00 15 9 Noroeste 12 Noroeste 0 -- -- 79
2020-10-25 01:00:00 16.1 11 Norte 18 Noroeste 0 -- -- 77
2020-10-25 00:00:00 16.3 3 Noroeste 6 Noroeste 0 -- -- 77
2020-10-24 23:00:00 16.8 4 Noroeste 9 Noroeste 0 -- -- 77
2020-10-24 22:00:00 17.6 3 Oeste 9 Noroeste 0 -- -- 78
2020-10-24 21:00:00 18.2 5 Noroeste 10 Noroeste 0 -- -- 76
2020-10-24 20:00:00 18.8 6 Norte 15 Este 0 -- -- 80
2020-10-24 19:00:00 19.6 12 Este 14 Este 0 -- -- 78
2020-10-24 18:00:00 20.8 8 Este 9 Este 0 -- -- 76
2020-10-24 17:00:00 21.4 5 Nordeste 7 Nordeste 0 -- -- 71
2020-10-24 16:00:00 20.9 3 Sudoeste 10 Sudoeste 0 -- -- 71
2020-10-24 15:00:00 19.8 9 Sudoeste 12 Sudoeste 0 -- -- 74
2020-10-24 14:00:00 18.8 10 Sudoeste 14 Sudoeste 0 -- -- 72
2020-10-24 13:00:00 18.6 12 Sudoeste 14 Sudoeste 0 -- -- 73
2020-10-24 12:00:00 18.5 10 Sudoeste 13 Sudoeste 0 -- -- 72
2020-10-24 11:00:00 20.4 3 Nordeste 10 Noroeste 0 -- -- 58
2020-10-24 10:00:00 17.6 8 Norte 14 Norte 0 -- -- 63
2020-10-24 09:00:00 15.1 11 Norte 15 Norte 0 -- -- 71
2020-10-24 08:00:00 14.7 11 Noroeste 15 Noroeste 0 -- -- 73
2020-10-24 07:00:00 14.8 12 Norte 17 Noroeste 0 -- -- 73
2020-10-24 06:00:00 14.8 5 Noroeste 10 Noroeste 0 -- -- 75
2020-10-24 05:00:00 15.1 3 Noroeste 15 Norte 0 -- -- 75
2020-10-24 04:00:00 15.8 13 Norte 18 Noroeste 0 -- -- 73
2020-10-24 03:00:00 15.5 5 Noroeste 16 Norte 0 -- -- 77
2020-10-24 02:00:00 16 8 Norte 16 Norte 0 -- -- 76
2020-10-24 01:00:00 16 12 Norte 15 Norte 0 -- -- 79
2020-10-24 00:00:00 16.2 6 Noroeste 10 Noroeste 0 -- -- 81
2020-10-23 23:00:00 16.7 3 Noroeste 12 Noroeste 0 -- -- 82
2020-10-23 22:00:00 17.3 3 Norte 10 Oeste 0 -- -- 84
2020-10-23 21:00:00 17.9 0 Calma 10 Norte 0 -- -- 82
2020-10-23 20:00:00 19.1 3 Noroeste 17 Oeste 0 -- -- 75
2020-10-23 19:00:00 20 9 Oeste 25 Oeste 0 -- -- 72
2020-10-23 18:00:00 20 15 Oeste 23 Oeste 0 -- -- 78
2020-10-23 17:00:00 19.4 11 Oeste 29 Sudoeste 0 -- -- 79
2020-10-23 16:00:00 19 14 Sudoeste 21 Sudoeste 0 -- -- 79
2020-10-23 15:00:00 19.2 10 Sudoeste 18 Sudoeste 0 -- -- 83
2020-10-23 14:00:00 21.6 0 Calma 9 Oeste 0 -- -- 74
2020-10-23 13:00:00 19.8 6 Sudoeste 15 Sudoeste 0 -- -- 83
2020-10-23 12:00:00 18.2 5 Sur 8 Sur 0 -- -- 85
2020-10-23 11:00:00 18.6 4 Sur 7 Norte 0 -- -- 81
2020-10-23 10:00:00 18.2 0 Calma 13 Norte 0 -- -- 80
2020-10-23 09:00:00 14.3 8 Noroeste 14 Noroeste 0 -- -- 93
2020-10-23 08:00:00 14.1 8 Noroeste 13 Norte 0 -- -- 93
2020-10-23 07:00:00 14.4 8 Norte 14 Norte 0 -- -- 95
2020-10-23 06:00:00 14.9 4 Noroeste 12 Norte 0 -- -- 97
2020-10-23 05:00:00 15.6 5 Norte 9 Norte 0 -- -- 97
2020-10-23 04:00:00 15.9 2 Noroeste 5 Oeste 0.2 -- -- 97
2020-10-23 03:00:00 16.4 2 Oeste 6 Oeste 0.2 -- -- 97
2020-10-23 02:00:00 16.7 0 Calma 5 Noroeste 0.4 -- -- 96
2020-10-23 01:00:00 16.7 0 Calma 5 Nordeste 0 -- -- 96
2020-10-23 00:00:00 16.4 2 Norte 5 Norte 0 -- -- 96
2020-10-22 23:00:00 16.5 0 Calma 6 Nordeste 0 -- -- 96
2020-10-22 22:00:00 16.9 0 Calma 8 Este 0 -- -- 95
2020-10-22 21:00:00 17.4 0 Calma 4 Nordeste 0 -- -- 95
2020-10-22 20:00:00 17.3 2 Este 5 Sudeste 0 -- -- 94
2020-10-22 19:00:00 17.6 0 Calma 5 Nordeste 0 -- -- 94
2020-10-22 18:00:00 17.6 3 Nordeste 8 Sudeste 0.4 -- -- 94
2020-10-22 17:00:00 17.5 3 Este 5 Sur 0.8 -- -- 95
2020-10-22 16:00:00 17.4 0 Calma 5 Sur 3.6 -- -- 95
2020-10-22 15:00:00 17.5 2 Nordeste 10 Nordeste 0.8 -- -- 95
2020-10-22 14:00:00 17 9 Nordeste 13 Este 13 -- -- 95
2020-10-22 13:00:00 16.8 5 Nordeste 29 Este 8.4 -- -- 95
2020-10-22 12:00:00 17 18 Este 24 Este 3.4 -- -- 93
2020-10-22 11:00:00 17.3 20 Nordeste 31 Este 1.2 -- -- 90
2020-10-22 10:00:00 17.5 20 Este 24 Nordeste 0.2 -- -- 88
2020-10-22 09:00:00 17.1 8 Nordeste 15 Nordeste 0 -- -- 91
2020-10-22 08:00:00 17.4 5 Noroeste 10 Norte 0.2 -- -- 91
2020-10-22 07:00:00 17.4 7 Nordeste 14 Este 1.2 -- -- 91
2020-10-22 06:00:00 17.8 9 Nordeste 17 Este 2.2 -- -- 90
2020-10-22 05:00:00 18.4 3 Nordeste 19 Nordeste 0.2 -- -- 86
2020-10-22 04:00:00 18.5 8 Nordeste 14 Este 0 -- -- 85
2020-10-22 03:00:00 18.6 3 Norte 8 Nordeste 0 -- -- 85
2020-10-22 02:00:00 18.8 7 Nordeste 10 Nordeste 0 -- -- 86
2020-10-22 01:00:00 18.8 4 Nordeste 8 Norte 0 -- -- 86
2020-10-22 00:00:00 18.6 2 Norte 6 Norte 0 -- -- 87
2020-10-21 23:00:00 18.9 3 Norte 8 Este 0 -- -- 86
2020-10-21 22:00:00 18.8 4 Nordeste 8 Nordeste 0 -- -- 87
2020-10-21 21:00:00 18.7 5 Nordeste 10 Sudeste 0 -- -- 89
2020-10-21 20:00:00 18.7 4 Este 7 Este 0 -- -- 88
2020-10-21 19:00:00 19.1 0 Calma 9 Este 0 -- -- 89
2020-10-21 18:00:00 19.2 8 Nordeste 13 Nordeste 0 -- -- 87
2020-10-21 17:00:00 19.3 6 Nordeste 12 Nordeste 0 -- -- 88
2020-10-21 16:00:00 20.3 11 Nordeste 13 Este 0 -- -- 83
2020-10-21 15:00:00 20.6 6 Este 9 Este 0 -- -- 80
2020-10-21 14:00:00 20.5 3 Nordeste 8 Sudeste 0 -- -- 81
2020-10-21 13:00:00 19.3 8 Sudeste 21 Sudoeste 0 -- -- 84
2020-10-21 12:00:00 21 10 Oeste 15 Sudoeste 0 -- -- 82
2020-10-21 11:00:00 18.9 5 Sudeste 14 Este 0 -- -- 91
2020-10-21 10:00:00 18.5 3 Noroeste 32 Sudoeste 0 -- -- 92
2020-10-21 09:00:00 17.9 18 Oeste 35 Oeste 0 -- -- 93
2020-10-21 08:00:00 18 19 Oeste 27 Oeste 0 -- -- 93
2020-10-21 07:00:00 17.7 6 Este 9 Sudoeste 2.4 -- -- 94
2020-10-21 06:00:00 17.6 4 Noroeste 10 Noroeste 0 -- -- 94
2020-10-21 05:00:00 17.1 4 Norte 13 Norte 0 -- -- 95
2020-10-21 04:00:00 17.1 4 Noroeste 9 Norte 0 -- -- 95
2020-10-21 03:00:00 17 3 Nordeste 9 Nordeste 0 -- -- 94
2020-10-21 02:00:00 17.7 3 Oeste 8 Oeste 0 -- -- 93
2020-10-21 01:00:00 17.5 0 Calma 14 Oeste 1.8 -- -- 93
2020-10-21 00:00:00 17.2 15 Oeste 43 Oeste 14.4 -- -- 93
2020-10-20 23:00:00 18.5 5 Nordeste 9 Nordeste 1 -- -- 90
2020-10-20 22:00:00 18.5 5 Oeste 17 Sudoeste 0.4 -- -- 89
2020-10-20 21:00:00 18.8 5 Sudoeste 9 Sudoeste 0 -- -- 86
2020-10-20 20:00:00 18.9 7 Sudoeste 17 Este 0 -- -- 85
2020-10-20 19:00:00 19 4 Nordeste 19 Este 0 -- -- 85
2020-10-20 18:00:00 19.7 3 Norte 17 Este 0 -- -- 83
2020-10-20 17:00:00 18.4 15 Este 26 Este 0 -- -- 89
2020-10-20 16:00:00 18.7 21 Sudeste 28 Sudeste 0 -- -- 86
2020-10-20 15:00:00 18.6 23 Sudeste 30 Este 0 -- -- 87
2020-10-20 14:00:00 19.2 20 Este 27 Este 0 -- -- 83
2020-10-20 13:00:00 19.5 16 Este 21 Este 0 -- -- 81
2020-10-20 12:00:00 19.6 14 Este 19 Este 0 -- -- 80
2020-10-20 11:00:00 19.6 10 Nordeste 15 Este 0 -- -- 75
2020-10-20 10:00:00 18.4 9 Norte 20 Norte 0 -- -- 73
2020-10-20 09:00:00 18.6 13 Nordeste 19 Nordeste 0 -- -- 79
2020-10-20 08:00:00 17.8 6 Norte 14 Nordeste 0 -- -- 73
2020-10-20 07:00:00 18 9 Norte 14 Nordeste 0 -- -- 75
2020-10-20 06:00:00 17.6 5 Norte 13 Nordeste 0 -- -- 74
2020-10-20 05:00:00 18.3 10 Este 15 Este 0 -- -- 83
2020-10-20 04:00:00 17.8 4 Norte 12 Nordeste 0 -- -- 77
2020-10-20 03:00:00 17.9 5 Nordeste 14 Norte 0 -- -- 77
2020-10-20 02:00:00 17.2 4 Norte 12 Noroeste 0 -- -- 81
2020-10-20 01:00:00 16.8 8 Norte 13 Norte 0 -- -- 84
2020-10-20 00:00:00 16.9 8 Norte 14 Noroeste 0 -- -- 85
2020-10-19 23:00:00 17.6 4 Norte 8 Noroeste 0 -- -- 84
2020-10-19 22:00:00 17.9 5 Nordeste 9 Nordeste 0 -- -- 84
2020-10-19 21:00:00 18.2 4 Norte 9 Nordeste 0 -- -- 84
2020-10-19 20:00:00 18.2 6 Nordeste 8 Nordeste 0 -- -- 83
2020-10-19 19:00:00 18.7 4 Nordeste 13 Este 0 -- -- 79
2020-10-19 18:00:00 20.2 6 Nordeste 15 Nordeste 0 -- -- 74
2020-10-19 17:00:00 20 5 Nordeste 23 Sudeste 0 -- -- 78
2020-10-19 16:00:00 18.5 21 Sudeste 31 Sudeste 0 -- -- 81
2020-10-19 15:00:00 18.6 19 Sudeste 27 Sudeste 0 -- -- 74
2020-10-19 14:00:00 18.8 22 Sudeste 29 Sudeste 0 -- -- 72
2020-10-19 13:00:00 18.9 24 Sudeste 33 Sudeste 0 -- -- 71
2020-10-19 12:00:00 19 18 Sudeste 24 Este 0 -- -- 70
2020-10-19 11:00:00 19.2 17 Este 24 Este 0 -- -- 65
2020-10-19 10:00:00 19.3 17 Este 21 Este 0 -- -- 64
2020-10-19 09:00:00 17.8 12 Este 17 Este 0 -- -- 64
2020-10-19 08:00:00 16.9 7 Norte 15 Este 0 -- -- 60
2020-10-19 07:00:00 16.9 5 Nordeste 24 Nordeste 0 -- -- 56
2020-10-19 06:00:00 17 7 Norte 24 Nordeste 0 -- -- 52
2020-10-19 05:00:00 18.7 18 Nordeste 32 Nordeste 0 -- -- 56
2020-10-19 04:00:00 18.5 18 Nordeste 29 Nordeste 0 -- -- 50
2020-10-19 03:00:00 16.8 9 Nordeste 18 Este 0 -- -- 55
2020-10-19 02:00:00 16.2 6 Norte 14 Noroeste 0 -- -- 44
2020-10-19 01:00:00 15.7 7 Norte 9 Noroeste 0 -- -- 50
2020-10-19 00:00:00 16.3 6 Noroeste 9 Noroeste 0 -- -- 50
2020-10-18 23:00:00 16 4 Noroeste 9 Norte 0 -- -- 61
2020-10-18 22:00:00 16.5 3 Norte 10 Noroeste 0 -- -- 64
2020-10-18 21:00:00 17.8 7 Nordeste 19 Este 0 -- -- 60
2020-10-18 20:00:00 18.1 16 Este 26 Este 0 -- -- 68
2020-10-18 19:00:00 18.5 22 Este 27 Este 0 -- -- 69
2020-10-18 18:00:00 18.5 23 Este 29 Sudeste 0 -- -- 78
2020-10-18 17:00:00 18.6 22 Sudeste 29 Sudeste 0 -- -- 78
2020-10-18 16:00:00 18.7 22 Sudeste 27 Sudeste 0 -- -- 74
2020-10-18 15:00:00 18.4 20 Sudeste 27 Sudeste 0 -- -- 75
2020-10-18 14:00:00 18.3 20 Sudeste 35 Sudeste 0 -- -- 66
2020-10-18 13:00:00 18 23 Sudeste 30 Sudeste 0 -- -- 74
2020-10-18 12:00:00 19.8 4 Sudeste 8 Este 0 -- -- 67
2020-10-18 11:00:00 20.7 5 Este 9 Noroeste 0 -- -- 51
2020-10-18 10:00:00 18.4 5 Norte 13 Noroeste 0 -- -- 54
2020-10-18 09:00:00 15 9 Noroeste 15 Norte 0 -- -- 63
2020-10-18 08:00:00 14 9 Norte 16 Norte 0 -- -- 67
2020-10-18 07:00:00 14.1 10 Noroeste 16 Noroeste 0 -- -- 68
2020-10-18 06:00:00 14.1 9 Noroeste 14 Norte 0 -- -- 68
2020-10-18 05:00:00 14.6 9 Norte 14 Noroeste 0 -- -- 66
2020-10-18 04:00:00 14.3 11 Norte 15 Norte 0 -- -- 69
2020-10-18 03:00:00 14.5 10 Norte 15 Norte 0 -- -- 69
2020-10-18 02:00:00 15 7 Norte 15 Noroeste 0 -- -- 68
2020-10-18 01:00:00 15.1 9 Norte 15 Norte 0 -- -- 67
2020-10-18 00:00:00 15.5 11 Noroeste 14 Noroeste 0 -- -- 65
2020-10-17 23:00:00 15.9 4 Norte 8 Norte 0 -- -- 67
2020-10-17 22:00:00 16.5 4 Noroeste 6 Oeste 0 -- -- 66
2020-10-17 21:00:00 17.1 5 Oeste 7 Sudoeste 0 -- -- 74
2020-10-17 20:00:00 17.5 6 Oeste 8 Oeste 0 -- -- 82
2020-10-17 19:00:00 18.9 2 Sudoeste 5 Sudeste 0 -- -- 78
2020-10-17 18:00:00 19.2 3 Sudeste 5 Sudeste 0 -- -- 77
2020-10-17 17:00:00 19.2 3 Sudeste 6 Este 0 -- -- 75
2020-10-17 16:00:00 18.7 5 Sudeste 7 Sudeste 0 -- -- 76
2020-10-17 15:00:00 18.8 4 Sudeste 7 Sudeste 0 -- -- 73
2020-10-17 14:00:00 18.3 5 Sur 6 Sur 0 -- -- 73
2020-10-17 13:00:00 17.8 6 Sur 8 Sur 0 -- -- 73
2020-10-17 12:00:00 17.7 5 Sur 8 Sur 0 -- -- 71
2020-10-17 11:00:00 17.6 6 Sur 9 Noroeste 0 -- -- 68
2020-10-17 10:00:00 17.4 7 Noroeste 12 Noroeste 0 -- -- 56
2020-10-17 09:00:00 14.5 8 Noroeste 13 Noroeste 0 -- -- 61
2020-10-17 08:00:00 13.7 9 Noroeste 14 Noroeste 0 -- -- 64
2020-10-17 07:00:00 13.7 12 Noroeste 15 Norte 0 -- -- 66
2020-10-17 06:00:00 14 10 Noroeste 14 Noroeste 0 -- -- 66
2020-10-17 05:00:00 14.1 9 Noroeste 14 Norte 0 -- -- 66
2020-10-17 04:00:00 14.6 6 Norte 9 Noroeste 0 -- -- 65
2020-10-17 03:00:00 14.9 6 Norte 13 Norte 0 -- -- 62
2020-10-17 02:00:00 15.1 5 Norte 14 Norte 0 -- -- 61
2020-10-17 01:00:00 15.4 3 Norte 15 Norte 0 -- -- 61
2020-10-17 00:00:00 15.7 6 Norte 12 Norte 0 -- -- 59
2020-10-16 23:00:00 15.8 5 Oeste 15 Norte 0 -- -- 59
2020-10-16 22:00:00 16.9 11 Norte 15 Norte 0 -- -- 56
2020-10-16 21:00:00 16.6 9 Noroeste 13 Noroeste 0 -- -- 62
2020-10-16 20:00:00 16.7 0 Calma 5 Nordeste 0 -- -- 80
2020-10-16 19:00:00 18.7 3 Nordeste 6 Nordeste 0 -- -- 78
2020-10-16 18:00:00 19.9 0 Calma 6 Sur 0 -- -- 73
2020-10-16 17:00:00 18.8 5 Sudeste 9 Este 0 -- -- 77
2020-10-16 16:00:00 20.1 8 Este 10 Este 0 -- -- 68
2020-10-16 15:00:00 19.3 3 Sur 6 Sudoeste 0 -- -- 64
2020-10-16 14:00:00 19.5 2 Sur 8 Oeste 0 -- -- 59
2020-10-16 13:00:00 20.4 6 Oeste 9 Oeste 0 -- -- 54
2020-10-16 12:00:00 19.1 0 Calma 5 Este 0 -- -- 64
2020-10-16 11:00:00 18.4 3 Este 5 Este 0 -- -- 61
2020-10-16 10:00:00 19.5 4 Nordeste 8 Norte 0 -- -- 41
2020-10-16 09:00:00 15.1 5 Norte 8 Noroeste 0 -- -- 50
2020-10-16 08:00:00 13.4 2 Noroeste 12 Noroeste 0 -- -- 55
2020-10-16 07:00:00 13.6 6 Noroeste 12 Norte 0 -- -- 55
2020-10-16 06:00:00 14.4 7 Noroeste 11 Noroeste 0 -- -- 52
2020-10-16 05:00:00 14.9 4 Noroeste 12 Noroeste 0 -- -- 49
2020-10-16 04:00:00 14.8 2 Noroeste 15 Norte 0 -- -- 48
2020-10-16 03:00:00 15.6 12 Norte 16 Norte 0 -- -- 46
2020-10-16 02:00:00 14.8 6 Noroeste 9 Noroeste 0 -- -- 52
2020-10-16 01:00:00 15.4 2 Oeste 6 Noroeste 0 -- -- 68
2020-10-16 00:00:00 15.9 3 Norte 8 Oeste 0 -- -- 61
2020-10-15 23:00:00 16.3 3 Noroeste 9 Norte 0 -- -- 61
2020-10-15 22:00:00 17.4 2 Nordeste 9 Nordeste 0 -- -- 70
2020-10-15 21:00:00 18.7 6 Norte 14 Noroeste 0 -- -- 58
2020-10-15 20:00:00 19.7 8 Oeste 40 Sudoeste 0 -- -- 45
2020-10-15 19:00:00 18.9 31 Sudoeste 38 Sudoeste 0 -- -- 67
2020-10-15 18:00:00 19.1 28 Sudoeste 36 Sudoeste 0 -- -- 65
2020-10-15 17:00:00 19 27 Sudoeste 34 Sudoeste 0 -- -- 66
2020-10-15 16:00:00 18.8 26 Sudoeste 33 Sudoeste 0 -- -- 70
2020-10-15 15:00:00 18.6 27 Sudoeste 33 Sudoeste 0 -- -- 71
2020-10-15 14:00:00 18.7 24 Sudoeste 31 Sudoeste 0 -- -- 70
2020-10-15 13:00:00 18.4 24 Sudoeste 30 Sudoeste 0 -- -- 72
2020-10-15 12:00:00 18.4 14 Sudoeste 22 Sudoeste 0 -- -- 70
2020-10-15 11:00:00 17.8 13 Sudoeste 18 Sudoeste 0 -- -- 61
2020-10-15 10:00:00 19.4 0 Calma 6 Sudoeste 0 -- -- 46
2020-10-15 09:00:00 14.9 4 Norte 10 Noroeste 0 -- -- 54
2020-10-15 08:00:00 13.7 0 Calma 10 Sudoeste 0 -- -- 60
2020-10-15 07:00:00 13.9 6 Noroeste 10 Noroeste 0 -- -- 53
2020-10-15 06:00:00 13.8 6 Noroeste 12 Noroeste 0 -- -- 53
2020-10-15 05:00:00 13.8 6 Noroeste 13 Norte 0 -- -- 57
2020-10-15 04:00:00 14.4 6 Noroeste 10 Noroeste 0 -- -- 59
2020-10-15 03:00:00 14.8 2 Noroeste 10 Noroeste 0 -- -- 60
2020-10-15 02:00:00 15.2 6 Noroeste 9 Noroeste 0 -- -- 61
2020-10-15 01:00:00 16.1 4 Norte 15 Oeste 0 -- -- 59
2020-10-15 00:00:00 17.3 11 Oeste 30 Sudoeste 0 -- -- 64
2020-10-14 23:00:00 17.5 14 Oeste 22 Oeste 0 -- -- 62
2020-10-14 22:00:00 18 15 Oeste 27 Oeste 0 -- -- 63
2020-10-14 21:00:00 18.8 15 Oeste 45 Oeste 0 -- -- 60
2020-10-14 20:00:00 19 33 Sudoeste 50 Sudoeste 0 -- -- 65
2020-10-14 19:00:00 19.6 32 Sudoeste 45 Sudoeste 0 -- -- 69
2020-10-14 18:00:00 22.4 12 Sudoeste 58 Sur 0 -- -- 38
2020-10-14 17:00:00 19.9 48 Sur 71 Sur 0 -- -- 62
2020-10-14 16:00:00 19.5 45 Sudoeste 64 Sudoeste 0 -- -- 70
2020-10-14 15:00:00 19.5 43 Sudoeste 71 Sudoeste 0 -- -- 67
2020-10-14 14:00:00 19.3 49 Sudoeste 62 Sudoeste 0 -- -- 64
2020-10-14 13:00:00 18.6 50 Sudoeste 61 Sudoeste 0 -- -- 69
2020-10-14 12:00:00 17.9 43 Sudoeste 56 Sudoeste 0 -- -- 73
2020-10-14 11:00:00 18.5 35 Oeste 51 Oeste 0 -- -- 76
2020-10-14 10:00:00 18.2 21 Sudoeste 30 Oeste 0 -- -- 77
2020-10-14 09:00:00 17.7 9 Oeste 23 Oeste 0 -- -- 78
2020-10-14 08:00:00 16.6 6 Sudoeste 14 Sudoeste 0 -- -- 77
2020-10-14 07:00:00 15.8 6 Noroeste 12 Norte 0 -- -- 75
2020-10-14 06:00:00 15.9 6 Norte 13 Noroeste 0 -- -- 74
2020-10-14 05:00:00 15.3 8 Norte 13 Noroeste 0 -- -- 81
2020-10-14 04:00:00 15.2 4 Norte 7 Norte 0 -- -- 81
2020-10-14 03:00:00 15.6 0 Calma 9 Noroeste 0 -- -- 79
2020-10-14 02:00:00 16 5 Noroeste 12 Norte 0 -- -- 77
2020-10-14 01:00:00 16.3 7 Noroeste 12 Norte 0 -- -- 81
2020-10-14 00:00:00 16.6 6 Noroeste 10 Norte 0 -- -- 84
2020-10-13 23:00:00 17.6 3 Norte 9 Oeste 0 -- -- 82
2020-10-13 22:00:00 18.4 5 Oeste 9 Oeste 0 -- -- 82
2020-10-13 21:00:00 18.7 8 Oeste 14 Oeste 0 -- -- 83
2020-10-13 20:00:00 19.1 10 Oeste 14 Sudoeste 0 -- -- 84
2020-10-13 19:00:00 19.6 11 Sudoeste 13 Sudoeste 0 -- -- 82
2020-10-13 18:00:00 20.6 10 Sudoeste 14 Sudoeste 0 -- -- 77
2020-10-13 17:00:00 20.3 10 Sudoeste 13 Sudoeste 0 -- -- 76
2020-10-13 16:00:00 20.2 9 Sudoeste 12 Sudoeste 0 -- -- 74
2020-10-13 15:00:00 20 7 Sur 9 Sur 0 -- -- 73
2020-10-13 14:00:00 19.6 8 Sudeste 10 Sudeste 0 -- -- 73
2020-10-13 13:00:00 19.3 9 Sudeste 13 Sudeste 0 -- -- 75
2020-10-13 12:00:00 18.9 10 Sudeste 12 Sudeste 0 -- -- 73
2020-10-13 11:00:00 20.1 3 Sudeste 12 Noroeste 0 -- -- 62
2020-10-13 10:00:00 -- -- -- -- -- -- -- -- --
2020-10-13 09:00:00 15.6 12 Norte 18 Noroeste 0 -- -- 74
2020-10-13 08:00:00 15 8 Norte 15 Noroeste 0 -- -- 78
2020-10-13 07:00:00 15.1 10 Norte 16 Norte 0 -- -- 78
2020-10-13 06:00:00 15.6 8 Norte 15 Norte 0 -- -- 79
2020-10-13 05:00:00 15.9 9 Norte 16 Noroeste 0 -- -- 78
2020-10-13 04:00:00 -- -- -- -- -- -- -- -- --
2020-10-13 03:00:00 16.4 10 Norte 15 Norte 0 -- -- 78
2020-10-13 02:00:00 16.4 6 Norte 14 Noroeste 0 -- -- 80
2020-10-13 01:00:00 -- -- -- -- -- -- -- -- --
2020-10-13 00:00:00 17 9 Norte 15 Norte 0 -- -- 81
2020-10-12 23:00:00 17.3 9 Noroeste 13 Noroeste 0 -- -- 83
2020-10-12 22:00:00 18.2 6 Norte 11 Noroeste 0 -- -- 83
2020-10-12 21:00:00 18.8 4 Nordeste 8 Nordeste 0 -- -- 83
2020-10-12 20:00:00 18.9 6 Nordeste 10 Nordeste 0 -- -- 83
2020-10-12 19:00:00 19.6 9 Nordeste 13 Nordeste 0 -- -- 81
2020-10-12 18:00:00 21 7 Este 12 Este 0 -- -- 76
2020-10-12 17:00:00 21.4 10 Este 15 Este 0 -- -- 74
2020-10-12 16:00:00 21 11 Este 17 Este 0 -- -- 72
2020-10-12 15:00:00 20.9 13 Este 22 Este 0 -- -- 71
2020-10-12 14:00:00 19.9 17 Este 24 Este 0 -- -- 74
2020-10-12 13:00:00 19.7 19 Este 27 Este 0 -- -- 76
2020-10-12 12:00:00 19.9 18 Sudeste 23 Sudeste 0 -- -- 78
2020-10-12 11:00:00 21.9 4 Este 13 Norte 0 -- -- 65
2020-10-12 10:00:00 20.5 5 Norte 16 Norte 0 -- -- 65
2020-10-12 09:00:00 17.5 9 Norte 21 Norte 0 -- -- 76
2020-10-12 08:00:00 15.8 13 Noroeste 18 Norte 0 -- -- 78
2020-10-12 07:00:00 15.7 10 Norte 15 Norte 0 -- -- 76
2020-10-12 06:00:00 16 10 Noroeste 15 Norte 0 -- -- 78
2020-10-12 05:00:00 15.9 12 Noroeste 17 Norte 0 -- -- 81
2020-10-12 04:00:00 -- -- -- -- -- -- -- -- --
2020-10-12 03:00:00 16.3 10 Norte 14 Norte 0 -- -- 84
2020-10-12 02:00:00 17 5 Noroeste 11 Norte 0 -- -- 83
2020-10-12 01:00:00 17.4 6 Norte 10 Noroeste 0 -- -- 82
2020-10-12 00:00:00 18.1 6 Norte 10 Norte 0 -- -- 81
2020-10-11 23:00:00 18.5 3 Oeste 12 Noroeste 0 -- -- 80
2020-10-11 22:00:00 19.1 6 Norte 12 Norte 0 -- -- 76
2020-10-11 21:00:00 -- -- -- -- -- -- -- -- --
2020-10-11 20:00:00 -- -- -- -- -- -- -- -- --
2020-10-11 19:00:00 20.6 2 Este 4 Sudeste 0 -- -- 81
2020-10-11 18:00:00 21.4 4 Este 6 Este 0 -- -- 80
2020-10-11 17:00:00 21.8 4 Sudeste 6 Sudeste 0 -- -- 77
2020-10-11 16:00:00 21.4 4 Sudeste 8 Sudeste 0 -- -- 80
2020-10-11 15:00:00 21.2 6 Sudeste 9 Sudeste 0 -- -- 80
2020-10-11 14:00:00 20.7 6 Sudeste 8 Sudeste 0 -- -- 81
2020-10-11 13:00:00 20.4 4 Sur 8 Sur 0 -- -- 81
2020-10-11 12:00:00 21.8 0 Calma 4 Nordeste 0 -- -- 71
2020-10-11 11:00:00 20.2 3 Nordeste 8 Norte 0 -- -- 77
2020-10-11 10:00:00 18.8 6 Noroeste 12 Norte 0 -- -- 81
2020-10-11 09:00:00 17.7 9 Norte 15 Norte 0 -- -- 83
2020-10-11 08:00:00 16.9 11 Noroeste 15 Norte 0 -- -- 85
2020-10-11 07:00:00 16.7 10 Noroeste 14 Noroeste 0 -- -- 86
2020-10-11 06:00:00 16.8 9 Norte 13 Norte 0 -- -- 86
2020-10-11 05:00:00 17 10 Norte 13 Norte 0 -- -- 86
2020-10-11 04:00:00 17.4 9 Norte 13 Norte 0 -- -- 85
2020-10-11 03:00:00 17.5 9 Norte 14 Norte 0 -- -- 85
2020-10-11 02:00:00 17.8 9 Norte 13 Noroeste 0 -- -- 85
2020-10-11 01:00:00 18.1 8 Norte 12 Norte 0 -- -- 84
2020-10-11 00:00:00 18.4 7 Noroeste 10 Noroeste 0 -- -- 83
2020-10-10 23:00:00 18.7 6 Noroeste 9 Noroeste 0 -- -- 84
2020-10-10 22:00:00 19.3 3 Norte 4 Nordeste 0 -- -- 86
2020-10-10 21:00:00 19.5 4 Nordeste 5 Nordeste 0 -- -- 87
2020-10-10 20:00:00 19.6 5 Nordeste 8 Nordeste 0 -- -- 86
2020-10-10 19:00:00 20.6 6 Nordeste 10 Este 0 -- -- 83
2020-10-10 18:00:00 21.8 4 Este 7 Nordeste 0 -- -- 79
2020-10-10 17:00:00 22.8 5 Nordeste 9 Nordeste 0 -- -- 76
2020-10-10 16:00:00 22.3 6 Este 10 Este 0 -- -- 76
2020-10-10 15:00:00 21.7 6 Este 10 Nordeste 0 -- -- 76
2020-10-10 14:00:00 22.5 6 Nordeste 9 Nordeste 0 -- -- 73
2020-10-10 13:00:00 22.4 4 Este 7 Este 0 -- -- 71
2020-10-10 12:00:00 23.1 3 Este 6 Sudeste 0 -- -- 68
2020-10-10 11:00:00 21.9 3 Nordeste 5 Este 0 -- -- 66
2020-10-10 10:00:00 21.5 0 Calma 4 Oeste 0 -- -- 69
2020-10-10 09:00:00 18.1 3 Oeste 12 Norte 0 -- -- 79
2020-10-10 08:00:00 17 6 Norte 13 Norte 0 -- -- 79
2020-10-10 07:00:00 17.1 9 Norte 15 Norte 0 -- -- 78
2020-10-10 06:00:00 17.1 9 Noroeste 12 Norte 0 -- -- 82
2020-10-10 05:00:00 17.1 8 Noroeste 12 Noroeste 0 -- -- 83
2020-10-10 04:00:00 17.8 7 Noroeste 11 Norte 0 -- -- 82
2020-10-10 03:00:00 17.8 9 Noroeste 13 Noroeste 0 -- -- 83
2020-10-10 02:00:00 18.1 9 Norte 13 Noroeste 0 -- -- 83
2020-10-10 01:00:00 18.2 9 Norte 12 Noroeste 0 -- -- 84
2020-10-10 00:00:00 18.5 6 Norte 10 Norte 0 -- -- 83
2020-10-09 23:00:00 19.2 2 Oeste 6 Norte 0 -- -- 83
2020-10-09 22:00:00 19.5 4 Norte 8 Norte 0 -- -- 81
2020-10-09 21:00:00 19.6 3 Nordeste 4 Norte 0 -- -- 82
2020-10-09 20:00:00 20 3 Nordeste 5 Este 0 -- -- 80
2020-10-09 19:00:00 20.7 4 Este 5 Este 0 -- -- 76
2020-10-09 18:00:00 22.2 4 Este 5 Este 0 -- -- 70
2020-10-09 17:00:00 22.1 2 Este 5 Este 0 -- -- 71
2020-10-09 16:00:00 23.8 3 Este 5 Este 0 -- -- 68
2020-10-09 15:00:00 23.9 4 Este 7 Nordeste 0 -- -- 68
2020-10-09 14:00:00 21.8 5 Este 14 Este 0 -- -- 75
2020-10-09 13:00:00 22.3 7 Nordeste 14 Este 0 -- -- 74
2020-10-09 12:00:00 23.6 5 Este 8 Nordeste 0 -- -- 71
2020-10-09 11:00:00 21.6 5 Nordeste 9 Nordeste 0 -- -- 78
2020-10-09 10:00:00 21.9 5 Norte 14 Noroeste 0 -- -- 65
2020-10-09 09:00:00 17.6 10 Norte 17 Norte 0 -- -- 73
2020-10-09 08:00:00 17.3 10 Noroeste 14 Norte 0 -- -- 74
2020-10-09 07:00:00 17.2 10 Norte 14 Noroeste 0 -- -- 72
2020-10-09 06:00:00 17.3 8 Norte 14 Nordeste 0 -- -- 72
2020-10-09 05:00:00 18.8 8 Nordeste 15 Norte 0 -- -- 77
2020-10-09 04:00:00 18.4 8 Norte 15 Norte 0 -- -- 64
2020-10-09 03:00:00 18.4 9 Noroeste 15 Norte 0 -- -- 63
2020-10-09 02:00:00 18.6 9 Noroeste 15 Norte 0 -- -- 64
2020-10-09 01:00:00 19.8 8 Norte 15 Norte 0 -- -- 62
2020-10-09 00:00:00 18.9 9 Noroeste 14 Noroeste 0 -- -- 62
2020-10-08 23:00:00 19.3 10 Noroeste 15 Noroeste 0 -- -- 60
2020-10-08 22:00:00 20.3 5 Nordeste 18 Sudeste 0 -- -- 66
2020-10-08 21:00:00 19.9 11 Este 21 Norte 0 -- -- 72
2020-10-08 20:00:00 19.9 9 Nordeste 21 Este 0 -- -- 67
2020-10-08 19:00:00 19.8 18 Sudeste 26 Sudeste 0 -- -- 69
2020-10-08 18:00:00 20.7 24 Sudeste 28 Este 0 -- -- 60
2020-10-08 17:00:00 20.9 21 Este 31 Sudeste 0 -- -- 64
2020-10-08 16:00:00 21.2 26 Este 34 Este 0 -- -- 62
2020-10-08 15:00:00 21.5 27 Este 37 Este 0 -- -- 61
2020-10-08 14:00:00 21.7 26 Este 33 Este 0 -- -- 60
2020-10-08 13:00:00 22 25 Este 32 Este 0 -- -- 57
2020-10-08 12:00:00 21.5 22 Este 29 Este 0 -- -- 57
2020-10-08 11:00:00 22.5 7 Nordeste 13 Este 0 -- -- 54
2020-10-08 10:00:00 23.8 3 Este 9 Norte 0 -- -- 46
2020-10-08 09:00:00 19.9 6 Norte 15 Norte 0 -- -- 58
2020-10-08 08:00:00 17.4 7 Noroeste 12 Noroeste 0 -- -- 62
2020-10-08 07:00:00 17.8 9 Norte 14 Norte 0 -- -- 61
2020-10-08 06:00:00 17.6 9 Noroeste 13 Norte 0 -- -- 62
2020-10-08 05:00:00 17.6 6 Noroeste 11 Noroeste 0 -- -- 68
2020-10-08 04:00:00 16.7 3 Norte 5 Sudoeste 0 -- -- 71
2020-10-08 03:00:00 17.4 0 Calma 7 Norte 0 -- -- 70
2020-10-08 02:00:00 18.4 5 Noroeste 13 Norte 0 -- -- 58
2020-10-08 01:00:00 18.3 7 Noroeste 10 Norte 0 -- -- 59
2020-10-08 00:00:00 18.5 5 Noroeste 7 Norte 0 -- -- 59
2020-10-07 23:00:00 18.7 4 Norte 7 Norte 0 -- -- 58
2020-10-07 22:00:00 19.1 5 Noroeste 7 Norte 0 -- -- 57
2020-10-07 21:00:00 19.5 0 Calma 4 Nordeste 0 -- -- 63
2020-10-07 20:00:00 19.9 3 Nordeste 4 Nordeste 0 -- -- 60
2020-10-07 19:00:00 20.4 0 Calma 5 Sur 0 -- -- 56
2020-10-07 18:00:00 21.3 4 Sur 5 Sur 0 -- -- 56
2020-10-07 17:00:00 23 0 Calma 4 Sudoeste 0 -- -- 53
2020-10-07 16:00:00 22.8 0 Calma 4 Sur 0 -- -- 70
2020-10-07 15:00:00 20.7 3 Sudeste 5 Sur 0 -- -- 74
2020-10-07 14:00:00 20.5 0 Calma 4 Sur 0 -- -- 72
2020-10-07 13:00:00 21 2 Sudoeste 5 Sudoeste 0 -- -- 67
2020-10-07 12:00:00 19.6 5 Sudoeste -- -- 0 -- -- 72
2020-10-07 11:00:00 18.5 4 Sudoeste 6 Sudoeste 0 -- -- 71
2020-10-07 10:00:00 19.6 0 Calma 5 Nordeste 0 -- -- 59
2020-10-07 09:00:00 18.5 2 Norte 12 Noroeste 0 -- -- 58
2020-10-07 08:00:00 15.9 7 Noroeste 13 Norte 0 -- -- 66
2020-10-07 07:00:00 16.1 6 Norte 11 Norte 0 -- -- 68
2020-10-07 06:00:00 16.4 3 Norte 17 Norte 0 -- -- 69
2020-10-07 05:00:00 16.5 7 Norte 14 Noroeste 0 -- -- 68
2020-10-07 04:00:00 16.5 9 Noroeste 14 Noroeste 0 -- -- 71
2020-10-07 03:00:00 16.7 9 Noroeste 13 Noroeste 0 -- -- 75
2020-10-07 02:00:00 16.9 9 Noroeste 13 Norte 0 -- -- 82
2020-10-07 01:00:00 17.1 6 Norte 9 Norte 0 -- -- 83
2020-10-07 00:00:00 17.1 5 Noroeste 8 Norte 0 -- -- 86
2020-10-06 23:00:00 17.6 3 Norte 5 Noroeste 0 -- -- 90
2020-10-06 22:00:00 18.2 5 Nordeste 8 Norte 0 -- -- 91
2020-10-06 21:00:00 18.2 6 Nordeste 9 Nordeste 0 -- -- 87
2020-10-06 20:00:00 18.9 4 Nordeste 8 Nordeste 0 -- -- 82
2020-10-06 19:00:00 19.6 5 Este 8 Este 0 -- -- 78
2020-10-06 18:00:00 19.7 3 Este 5 Sudeste 0 -- -- 71
2020-10-06 17:00:00 21.4 0 Calma 5 Este 0 -- -- 61
2020-10-06 16:00:00 22.3 3 Nordeste 10 Este 0 -- -- 59
2020-10-06 15:00:00 21.5 2 Sudeste 19 Este 0 -- -- 59
2020-10-06 14:00:00 19 13 Sudeste 23 Sudeste 0 -- -- 70
2020-10-06 13:00:00 19.7 9 Sudeste 24 Este 0 -- -- 67
2020-10-06 12:00:00 20.4 5 Sudoeste 10 Sur 0 -- -- 59
2020-10-06 11:00:00 21.1 3 Oeste 5 Sudoeste 0 -- -- 52
2020-10-06 10:00:00 20.2 4 Oeste 15 Noroeste 0 -- -- 56
2020-10-06 09:00:00 17.5 11 Noroeste 16 Norte 0 -- -- 54
2020-10-06 08:00:00 16.3 10 Norte 15 Norte 0 -- -- 58
2020-10-06 07:00:00 15.4 4 Oeste 10 Norte 0 -- -- 65
2020-10-06 06:00:00 16.2 5 Norte 12 Oeste 0 -- -- 61
2020-10-06 05:00:00 17.4 5 Noroeste 9 Oeste 0 -- -- 56
2020-10-06 04:00:00 16.8 0 Calma 8 Oeste 0 -- -- 65
2020-10-06 03:00:00 16.9 6 Norte 15 Este 0 -- -- 67
2020-10-06 02:00:00 17.6 6 Norte 13 Nordeste 0 -- -- 55
2020-10-06 01:00:00 17 4 Oeste 12 Noroeste 0 -- -- 69
2020-10-06 00:00:00 17.1 0 Calma 12 Sudeste 0 -- -- 81
2020-10-05 23:00:00 17.6 0 Calma 15 Sudeste 0 -- -- 75
2020-10-05 22:00:00 18.1 5 Nordeste 15 Sudeste 0 -- -- 78
2020-10-05 21:00:00 19.1 2 Norte 9 Noroeste 0 -- -- 72
2020-10-05 20:00:00 19 8 Nordeste 10 Nordeste 0 -- -- 70
2020-10-05 19:00:00 18.3 8 Nordeste 15 Nordeste 0 -- -- 82
2020-10-05 18:00:00 19.2 9 Nordeste 11 Nordeste 0 -- -- 78
2020-10-05 17:00:00 19.7 6 Este 9 Sudeste 0 -- -- 75
2020-10-05 16:00:00 20 4 Este 8 Este 0 -- -- 70
2020-10-05 15:00:00 21 2 Sudeste 8 Sur 0 -- -- 63
2020-10-05 14:00:00 20.9 2 Este 5 Este 0 -- -- 54
2020-10-05 13:00:00 20.9 3 Nordeste 8 Nordeste 0 -- -- 59
2020-10-05 12:00:00 19.7 2 Sudoeste 8 Sur 0 -- -- 68
2020-10-05 11:00:00 18.8 3 Sudoeste 9 Sudoeste 0 -- -- 73
2020-10-05 10:00:00 19.7 4 Oeste 14 Sur 0 -- -- 73
2020-10-05 09:00:00 17.8 2 Sur 6 Oeste 0 -- -- 68
2020-10-05 08:00:00 16.7 3 Oeste 10 Noroeste 0 -- -- 69
2020-10-05 07:00:00 16.2 6 Norte 10 Noroeste 0 -- -- 74
2020-10-05 06:00:00 16.8 3 Sur 9 Oeste 0 -- -- 75
2020-10-05 05:00:00 16.8 3 Norte 6 Noroeste 0 -- -- 72
2020-10-05 04:00:00 17.4 3 Noroeste 9 Oeste 0 -- -- 67
2020-10-05 03:00:00 18.2 8 Noroeste 11 Noroeste 0 -- -- 61
2020-10-05 02:00:00 18 5 Norte 10 Noroeste 0 -- -- 63
2020-10-05 01:00:00 18.2 4 Norte 9 Norte 0 -- -- 63
2020-10-05 00:00:00 18.1 4 Nordeste 12 Oeste 0 -- -- 70
2020-10-04 23:00:00 19.5 5 Oeste 17 Sudoeste 0 -- -- 60
2020-10-04 22:00:00 19.3 8 Sudoeste 14 Sudoeste 0 -- -- 70
2020-10-04 21:00:00 20 7 Nordeste 23 Oeste 0 -- -- 64
2020-10-04 20:00:00 23 11 Oeste 33 Oeste 0 -- -- 47
2020-10-04 19:00:00 19.4 7 Nordeste 14 Nordeste 0 -- -- 71
2020-10-04 18:00:00 19.7 10 Nordeste 18 Nordeste 0 -- -- 72
2020-10-04 17:00:00 20.2 12 Nordeste 14 Nordeste 0 -- -- 69
2020-10-04 16:00:00 20.5 9 Este 15 Nordeste 0 -- -- 68
2020-10-04 15:00:00 19.7 10 Nordeste 15 Nordeste 0 -- -- 72
2020-10-04 14:00:00 19.2 10 Este 14 Nordeste 0 -- -- 69
2020-10-04 13:00:00 18.8 8 Este 12 Este 0 -- -- 64
2020-10-04 12:00:00 17.1 8 Sur 12 Sur 0 -- -- 69
2020-10-04 11:00:00 18.6 5 Sudeste 13 Norte 0 -- -- 55
2020-10-04 10:00:00 18.2 7 Norte 13 Norte 0 -- -- 51
2020-10-04 09:00:00 15.8 9 Norte 15 Norte 0 -- -- 57
2020-10-04 08:00:00 14.7 8 Norte 13 Norte 0 -- -- 60
2020-10-04 07:00:00 14.9 7 Norte 13 Norte 0 -- -- 58
2020-10-04 06:00:00 14.9 3 Noroeste 10 Noroeste 0 -- -- 65
2020-10-04 05:00:00 15.1 5 Noroeste 16 Norte 0 -- -- 57
2020-10-04 04:00:00 15.8 9 Norte 15 Norte 0 -- -- 53
2020-10-04 03:00:00 15.5 7 Noroeste 13 Norte 0 -- -- 55
2020-10-04 02:00:00 16.4 6 Norte 12 Noroeste 0 -- -- 49
2020-10-04 01:00:00 16.3 6 Norte 12 Noroeste 0 -- -- 52
2020-10-04 00:00:00 16.7 5 Noroeste 9 Norte 0 -- -- 50
2020-10-03 23:00:00 17.6 0 Calma 17 Sudoeste 0 -- -- 52
2020-10-03 22:00:00 18.7 3 Oeste 14 Noroeste 0 -- -- 54
2020-10-03 21:00:00 19.8 6 Noroeste 17 Norte 0 -- -- 39
2020-10-03 20:00:00 18.5 3 Nordeste 10 Este 0 -- -- 63
2020-10-03 19:00:00 18.9 6 Oeste 16 Sur 0 -- -- 57
2020-10-03 18:00:00 18.9 13 Sur 24 Sur 0 -- -- 61
2020-10-03 17:00:00 18.5 20 Sudoeste 26 Sudoeste 0 -- -- 64
2020-10-03 16:00:00 19.5 4 Sudeste 18 Sudeste 0 -- -- 64
2020-10-03 15:00:00 17.8 13 Sudeste 17 Sudeste 0 -- -- 67
2020-10-03 14:00:00 17.8 12 Sur 16 Sur 0 -- -- 62
2020-10-03 13:00:00 17.5 13 Sur 18 Este 0 -- -- 59
2020-10-03 12:00:00 18.1 7 Sudeste 12 Sudeste 0 -- -- 54
2020-10-03 11:00:00 17.9 10 Este 20 Oeste 0 -- -- 53
2020-10-03 10:00:00 17.8 10 Noroeste 22 Noroeste 0 -- -- 48
2020-10-03 09:00:00 15.6 13 Noroeste 25 Oeste 0 -- -- 54
2020-10-03 08:00:00 14.6 8 Noroeste 25 Noroeste 0 -- -- 55
2020-10-03 07:00:00 15.1 13 Noroeste 23 Noroeste 0 -- -- 53
2020-10-03 06:00:00 15.8 17 Noroeste 33 Noroeste 0 -- -- 50
2020-10-03 05:00:00 16.1 5 Noroeste 24 Norte 0 -- -- 51
2020-10-03 04:00:00 16.7 14 Sudoeste 31 Oeste 0 -- -- 54
2020-10-03 03:00:00 16.9 8 Noroeste 24 Noroeste 0 -- -- 50
2020-10-03 02:00:00 17.6 12 Noroeste 32 Noroeste 0 -- -- 50
2020-10-03 01:00:00 18.2 10 Noroeste 21 Noroeste 0 -- -- 50
2020-10-03 00:00:00 18.8 8 Norte 26 Noroeste 0 -- -- 50
2020-10-02 23:00:00 19.8 11 Noroeste 40 Noroeste 0 -- -- 51
2020-10-02 22:00:00 20.7 12 Noroeste 47 Oeste 0 -- -- 63
2020-10-02 21:00:00 20.5 36 Oeste 52 Oeste 0 -- -- 73
2020-10-02 20:00:00 21.5 27 Oeste 62 Oeste 0 -- -- 67
2020-10-02 19:00:00 20.5 46 Oeste 68 Oeste 0 -- -- 83
2020-10-02 18:00:00 20.6 46 Oeste 68 Oeste 0.2 -- -- 82
2020-10-02 17:00:00 19.7 53 Oeste 81 Oeste 0 -- -- 87
2020-10-02 16:00:00 21.2 48 Oeste 69 Sudoeste 0 -- -- 76
2020-10-02 15:00:00 22 46 Oeste 66 Oeste 0 -- -- 72
2020-10-02 14:00:00 20.6 33 Oeste 57 Sudoeste 0 -- -- 78
2020-10-02 13:00:00 19.5 44 Sudoeste 60 Sudoeste 0 -- -- 78
2020-10-02 12:00:00 19.5 36 Sudoeste 51 Sudoeste 0 -- -- 74
2020-10-02 11:00:00 19.5 30 Sudoeste 51 Sudoeste 0 -- -- 71
2020-10-02 10:00:00 19 37 Oeste 54 Oeste 0 -- -- 71
2020-10-02 09:00:00 19 36 Oeste 50 Oeste 0 -- -- 67
2020-10-02 08:00:00 20.1 33 Oeste 46 Oeste 0 -- -- 61
2020-10-02 07:00:00 20.9 33 Oeste 48 Oeste 0 -- -- 56
2020-10-02 06:00:00 22.6 20 Oeste 38 Oeste 0 -- -- 53
2020-10-02 05:00:00 21.3 13 Oeste 42 Sudoeste 0 -- -- 64
2020-10-02 04:00:00 19.7 27 Oeste 37 Sudoeste 0 -- -- 80
2020-10-02 03:00:00 20.1 36 Sudoeste 45 Sudoeste 0 -- -- 79
2020-10-02 02:00:00 19.9 28 Sudoeste 38 Sudoeste 0 -- -- 81
2020-10-02 01:00:00 20.4 32 Sudoeste 39 Sudoeste 0 -- -- 78
2020-10-02 00:00:00 21.2 28 Sudoeste 36 Sudoeste 0 -- -- 74
2020-10-01 23:00:00 22.3 21 Oeste 41 Oeste 0 -- -- 64
2020-10-01 22:00:00 21.3 27 Oeste 34 Oeste 0 -- -- 73
2020-10-01 21:00:00 24.3 11 Oeste 39 Sudoeste 0 -- -- 49
2020-10-01 20:00:00 22.1 33 Sudoeste 46 Sudoeste 0 -- -- 63
2020-10-01 19:00:00 21.8 42 Sudoeste 53 Sudoeste 0 -- -- 67
2020-10-01 18:00:00 22.3 43 Sudoeste 62 Sudoeste 0 -- -- 64
2020-10-01 17:00:00 23.3 46 Sudoeste 62 Sudoeste 0 -- -- 60
2020-10-01 16:00:00 23.7 51 Sudoeste 61 Sudoeste 0 -- -- 59
2020-10-01 15:00:00 23.6 47 Sudoeste 59 Sudoeste 0 -- -- 57
2020-10-01 14:00:00 23.4 36 Sudoeste 42 Sudoeste 0 -- -- 62
2020-10-01 13:00:00 22.5 24 Sudoeste 40 Sudoeste 0 -- -- 71
2020-10-01 12:00:00 21.7 23 Sudoeste 32 Sudoeste 0 -- -- 76
2020-10-01 11:00:00 21.8 5 Este 11 Nordeste 0 -- -- 73
2020-10-01 10:00:00 21.4 0 Calma 6 Este 0 -- -- 76
2020-10-01 09:00:00 20.3 2 Este 10 Noroeste 0 -- -- 72
2020-10-01 08:00:00 17.6 5 Noroeste 9 Norte 0 -- -- 79
2020-10-01 07:00:00 18.1 4 Oeste 10 Noroeste 0 -- -- 77
2020-10-01 06:00:00 17.8 4 Noroeste 8 Noroeste 0 -- -- 82
2020-10-01 05:00:00 17.6 5 Oeste 10 Norte 0 -- -- 85
2020-10-01 04:00:00 18.2 6 Noroeste 10 Noroeste 0 -- -- 87
2020-10-01 03:00:00 19.1 0 Calma 5 Noroeste 0 -- -- 91
2020-10-01 02:00:00 19.4 5 Noroeste 11 Norte 0 -- -- 90
2020-10-01 01:00:00 19.9 3 Norte 9 Norte 0 -- -- 90
2020-10-01 00:00:00 19.9 3 Norte 7 Norte 0 -- -- 91
2020-09-30 23:00:00 20.6 0 Calma 8 Oeste 0 -- -- 90
2020-09-30 22:00:00 20.7 8 Sudoeste 14 Oeste 0 -- -- 91
2020-09-30 21:00:00 20.9 9 Oeste 14 Oeste 0 -- -- 91
2020-09-30 20:00:00 21.2 9 Sudoeste 13 Sudoeste 0 -- -- 90
2020-09-30 19:00:00 21.7 9 Sudoeste 10 Sudoeste 0 -- -- 86
2020-09-30 18:00:00 21.9 3 Sur 4 Sur 0 -- -- 82
2020-09-30 17:00:00 21.8 3 Sudoeste 5 Sudeste 0 -- -- 82
2020-09-30 16:00:00 22 4 Sur 5 Sur 0 -- -- 79
2020-09-30 15:00:00 22.3 3 Sudeste 4 Este 0 -- -- 77
2020-09-30 14:00:00 22 3 Sudeste 7 Sur 0 -- -- 77
2020-09-30 13:00:00 21.8 6 Sur 9 Sur 0 -- -- 78
2020-09-30 12:00:00 22.8 4 Sur 5 Sudeste 0 -- -- 70
2020-09-30 11:00:00 23.5 0 Calma 8 Norte 0 -- -- 64
2020-09-30 10:00:00 21 7 Noroeste 13 Norte 0 -- -- 54
2020-09-30 09:00:00 18.4 9 Noroeste 13 Noroeste 0 -- -- 50
2020-09-30 08:00:00 18 5 Noroeste 10 Noroeste 0 -- -- 51
2020-09-30 07:00:00 18.2 2 Noroeste 14 Norte 0 -- -- 54
2020-09-30 06:00:00 18.6 9 Noroeste 13 Norte 0 -- -- 51
2020-09-30 05:00:00 18.9 9 Norte 15 Norte 0 -- -- 53
2020-09-30 04:00:00 19.1 11 Noroeste 17 Noroeste 0 -- -- 53
2020-09-30 03:00:00 18.9 10 Norte 14 Norte 0 -- -- 57
2020-09-30 02:00:00 19 9 Noroeste 14 Norte 0 -- -- 59
2020-09-30 01:00:00 19.3 9 Noroeste 15 Norte 0 -- -- 61
2020-09-30 00:00:00 19.5 10 Noroeste 13 Noroeste 0 -- -- 62